createdAt,value
2017-09-11T00:00:47.751Z,14.10
2017-09-11T00:03:18.435Z,14.10
2017-09-11T00:05:49.654Z,14.10
2017-09-11T00:08:20.363Z,14.10
2017-09-11T00:10:50.791Z,14.10
2017-09-11T00:13:21.404Z,14.10
2017-09-11T00:15:52.031Z,14.10
2017-09-11T00:18:22.301Z,14.10
2017-09-11T00:20:54.218Z,14.10
2017-09-11T00:23:25.585Z,14.10
2017-09-11T00:25:55.978Z,14.10
2017-09-11T00:28:27.435Z,14.10
2017-09-11T00:30:58.297Z,14.10
2017-09-11T00:33:28.711Z,14.10
2017-09-11T00:35:59.206Z,14.20
2017-09-11T00:38:30.119Z,14.20
2017-09-11T00:41:00.813Z,14.20
2017-09-11T00:43:30.990Z,14.20
2017-09-11T00:46:02.378Z,14.20
2017-09-11T00:48:32.820Z,14.20
2017-09-11T00:51:04.317Z,14.20
2017-09-11T00:53:34.981Z,14.20
2017-09-11T00:56:05.423Z,14.20
2017-09-11T00:58:36.542Z,14.30
2017-09-11T01:01:09.315Z,14.30
2017-09-11T01:03:40.599Z,14.30
2017-09-11T01:06:11.765Z,14.30
2017-09-11T01:08:42.281Z,14.20
2017-09-11T01:11:13.763Z,14.30
2017-09-11T01:13:44.492Z,14.30
2017-09-11T01:16:14.909Z,14.20
2017-09-11T01:18:45.615Z,14.20
2017-09-11T01:21:16.688Z,14.30
2017-09-11T01:23:47.787Z,14.20
2017-09-11T01:26:18.990Z,14.20
2017-09-11T01:28:49.679Z,14.20
2017-09-11T01:31:20.341Z,14.20
2017-09-11T01:33:50.757Z,14.20
2017-09-11T01:36:21.390Z,14.20
2017-09-11T01:38:51.580Z,14.20
2017-09-11T01:41:22.439Z,14.10
2017-09-11T01:43:52.920Z,14.10
2017-09-11T01:46:24.062Z,14.00
2017-09-11T01:48:54.777Z,13.90
2017-09-11T01:51:25.480Z,13.80
2017-09-11T01:53:56.012Z,13.80
2017-09-11T01:56:26.824Z,13.80
2017-09-11T01:58:57.262Z,13.80
2017-09-11T02:01:27.797Z,13.80
2017-09-11T02:03:58.543Z,13.80
2017-09-11T02:06:29.723Z,13.80
2017-09-11T02:09:00.728Z,13.80
2017-09-11T02:11:31.584Z,13.90
2017-09-11T02:14:03.427Z,14.00
2017-09-11T02:16:34.277Z,14.00
2017-09-11T02:19:04.846Z,14.10
2017-09-11T02:21:37.283Z,14.10
2017-09-11T02:24:08.167Z,14.10
2017-09-11T02:26:39.434Z,14.20
2017-09-11T02:29:09.622Z,14.20
2017-09-11T02:31:40.998Z,14.20
2017-09-11T02:34:11.839Z,14.20
2017-09-11T02:36:42.851Z,14.20
2017-09-11T02:39:14.072Z,14.20
2017-09-11T02:41:45.183Z,14.20
2017-09-11T02:44:15.835Z,14.20
2017-09-11T02:46:47.378Z,14.20
2017-09-11T02:49:18.292Z,14.10
2017-09-11T02:51:49.174Z,14.20
2017-09-11T02:54:20.049Z,14.20
2017-09-11T02:56:52.069Z,14.10
2017-09-11T02:59:23.336Z,14.10
2017-09-11T03:01:55.790Z,14.10
2017-09-11T03:04:26.524Z,14.10
2017-09-11T03:06:57.699Z,14.10
2017-09-11T03:09:35.229Z,14.10
2017-09-11T03:12:06.704Z,14.10
2017-09-11T03:14:37.127Z,14.10
2017-09-11T03:17:09.203Z,14.10
2017-09-11T03:19:40.129Z,14.10
2017-09-11T03:22:11.225Z,14.10
2017-09-11T03:24:42.045Z,14.10
2017-09-11T03:27:12.561Z,14.10
2017-09-11T03:29:43.100Z,14.10
2017-09-11T03:32:13.773Z,14.10
2017-09-11T03:34:44.876Z,14.10
2017-09-11T03:37:15.869Z,14.20
2017-09-11T03:39:46.288Z,14.20
2017-09-11T03:42:17.647Z,14.10
2017-09-11T03:44:48.170Z,14.10
2017-09-11T03:47:20.463Z,14.10
2017-09-11T03:49:51.099Z,14.10
2017-09-11T03:52:22.193Z,14.10
2017-09-11T03:54:53.001Z,14.10
2017-09-11T03:57:23.880Z,14.10
2017-09-11T03:59:54.288Z,14.00
2017-09-11T04:02:25.140Z,13.90
2017-09-11T04:04:55.544Z,13.80
2017-09-11T04:07:26.711Z,13.70
2017-09-11T04:09:57.861Z,13.60
2017-09-11T04:12:29.164Z,13.50
2017-09-11T04:15:00.921Z,13.40
2017-09-11T04:17:31.907Z,13.40
2017-09-11T04:20:02.712Z,13.40
2017-09-11T04:22:35.429Z,13.40
2017-09-11T04:25:06.002Z,13.30
2017-09-11T04:27:36.915Z,13.40
2017-09-11T04:30:07.508Z,13.40
2017-09-11T04:32:39.373Z,13.40
2017-09-11T04:35:09.899Z,13.50
2017-09-11T04:37:40.487Z,13.50
2017-09-11T04:40:11.369Z,13.60
2017-09-11T04:42:41.899Z,13.60
2017-09-11T04:45:13.483Z,13.60
2017-09-11T04:47:44.176Z,13.60
2017-09-11T04:50:14.778Z,13.70
2017-09-11T04:52:45.698Z,13.70
2017-09-11T04:55:15.990Z,13.80
2017-09-11T04:57:46.716Z,13.80
2017-09-11T05:00:17.914Z,13.80
2017-09-11T05:02:48.618Z,13.80
2017-09-11T05:05:19.522Z,13.80
2017-09-11T05:07:50.619Z,13.80
2017-09-11T05:10:21.489Z,13.80
2017-09-11T05:12:52.596Z,13.80
2017-09-11T05:15:23.156Z,13.70
2017-09-11T05:17:53.458Z,13.70
2017-09-11T05:20:24.011Z,13.60
2017-09-11T05:22:56.609Z,13.60
2017-09-11T05:25:26.982Z,13.70
2017-09-11T05:27:57.449Z,13.60
2017-09-11T05:30:28.721Z,13.60
2017-09-11T05:33:00.278Z,13.70
2017-09-11T05:35:30.720Z,13.70
2017-09-11T05:38:01.414Z,13.60
2017-09-11T05:40:32.983Z,13.60
2017-09-11T05:43:03.272Z,13.50
2017-09-11T05:45:33.789Z,13.60
2017-09-11T05:48:04.562Z,13.60
2017-09-11T05:50:34.935Z,13.50
2017-09-11T05:53:08.980Z,13.60
2017-09-11T05:55:44.473Z,13.70
2017-09-11T05:58:19.461Z,13.70
2017-09-11T06:00:51.156Z,13.70
2017-09-11T06:03:21.415Z,13.70
2017-09-11T06:05:51.949Z,13.80
2017-09-11T06:08:24.287Z,13.80
2017-09-11T06:10:55.575Z,13.80
2017-09-11T06:13:26.072Z,13.80
2017-09-11T06:15:56.490Z,13.90
2017-09-11T06:18:27.011Z,13.90
2017-09-11T06:20:58.212Z,14.00
2017-09-11T06:23:30.695Z,14.10
2017-09-11T06:26:01.318Z,14.10
2017-09-11T06:28:31.708Z,14.10
2017-09-11T06:31:02.019Z,14.20
2017-09-11T06:33:32.695Z,14.10
2017-09-11T06:36:03.576Z,14.10
2017-09-11T06:38:34.025Z,14.20
2017-09-11T06:41:04.714Z,14.20
2017-09-11T06:43:35.927Z,14.20
2017-09-11T06:46:06.487Z,14.20
2017-09-11T06:48:36.912Z,14.20
2017-09-11T06:51:07.499Z,14.10
2017-09-11T06:53:38.311Z,14.10
2017-09-11T06:56:08.782Z,14.20
2017-09-11T06:58:39.249Z,14.20
2017-09-11T07:01:09.974Z,14.30
2017-09-11T07:03:40.430Z,14.40
2017-09-11T07:06:10.787Z,14.50
2017-09-11T07:08:41.482Z,14.60
2017-09-11T07:11:11.770Z,14.80
2017-09-11T07:13:42.967Z,14.90
2017-09-11T07:16:13.316Z,14.90
2017-09-11T07:18:43.810Z,14.80
2017-09-11T07:21:14.184Z,14.80
2017-09-11T07:23:45.101Z,14.70
2017-09-11T07:26:16.064Z,14.70
2017-09-11T07:28:46.307Z,14.70
2017-09-11T07:31:16.961Z,14.80
2017-09-11T07:33:47.403Z,14.70
2017-09-11T07:36:17.821Z,14.70
2017-09-11T07:38:48.478Z,14.70
2017-09-11T07:41:19.000Z,14.60
2017-09-11T07:43:49.426Z,14.60
2017-09-11T07:46:19.732Z,14.70
2017-09-11T07:48:50.344Z,14.70
2017-09-11T07:51:20.641Z,14.80
2017-09-11T07:53:50.951Z,14.80
2017-09-11T07:56:21.253Z,14.90
2017-09-11T07:58:53.650Z,14.90
2017-09-11T08:01:23.967Z,14.90
2017-09-11T08:03:54.377Z,14.80
2017-09-11T08:06:24.836Z,14.80
2017-09-11T08:08:55.240Z,15.00
2017-09-11T08:11:26.088Z,15.00
2017-09-11T08:13:56.778Z,15.30
2017-09-11T08:16:27.612Z,15.30
2017-09-11T08:18:58.042Z,15.20
2017-09-11T08:21:28.515Z,15.30
2017-09-11T08:23:59.039Z,15.30
2017-09-11T08:26:29.331Z,15.50
2017-09-11T08:28:59.924Z,15.40
2017-09-11T08:31:30.333Z,15.40
2017-09-11T08:34:01.817Z,15.50
2017-09-11T08:36:32.476Z,15.40
2017-09-11T08:39:03.703Z,15.60
2017-09-11T08:41:36.160Z,15.40
2017-09-11T08:44:06.735Z,15.40
2017-09-11T08:46:38.266Z,15.50
2017-09-11T08:49:08.749Z,15.80
2017-09-11T08:51:39.796Z,16.30
2017-09-11T08:54:10.113Z,16.30
2017-09-11T08:56:40.498Z,16.20
2017-09-11T08:59:10.743Z,16.20
2017-09-11T09:01:41.697Z,16.30
2017-09-11T09:04:11.990Z,16.40
2017-09-11T09:06:42.216Z,16.30
2017-09-11T09:09:12.557Z,16.10
2017-09-11T09:11:42.802Z,16.00
2017-09-11T09:14:14.002Z,15.80
2017-09-11T09:16:44.389Z,15.80
2017-09-11T09:19:14.705Z,15.70
2017-09-11T09:21:45.072Z,15.60
2017-09-11T09:24:15.627Z,15.70
2017-09-11T09:26:46.742Z,15.60
2017-09-11T09:29:17.082Z,15.60
2017-09-11T09:31:47.359Z,15.60
2017-09-11T09:34:17.847Z,15.50
2017-09-11T09:36:48.094Z,15.50
2017-09-11T09:39:18.730Z,15.50
2017-09-11T09:41:49.075Z,15.60
2017-09-11T09:44:19.361Z,15.70
2017-09-11T09:47:30.980Z,15.90
2017-09-11T09:50:01.194Z,16.10
2017-09-11T09:52:32.305Z,16.40
2017-09-11T09:55:03.697Z,16.50
2017-09-11T09:57:33.906Z,16.40
2017-09-11T10:00:04.360Z,16.70
2017-09-11T10:02:34.627Z,16.70
2017-09-11T10:05:05.315Z,16.60
2017-09-11T10:07:35.538Z,16.40
2017-09-11T10:10:05.905Z,16.20
2017-09-11T10:12:36.361Z,15.90
2017-09-11T10:15:06.842Z,15.80
2017-09-11T10:17:37.535Z,15.80
2017-09-11T10:20:07.955Z,16.30
2017-09-11T10:22:38.207Z,17.20
2017-09-11T10:25:08.608Z,17.50
2017-09-11T10:27:38.828Z,17.90
2017-09-11T10:30:09.267Z,17.90
2017-09-11T10:32:39.949Z,18.10
2017-09-11T10:35:10.446Z,18.50
2017-09-11T10:37:40.921Z,18.30
2017-09-11T10:40:12.159Z,17.40
2017-09-11T10:42:43.547Z,17.10
2017-09-11T10:45:14.206Z,17.10
2017-09-11T10:47:44.631Z,17.10
2017-09-11T10:50:15.027Z,17.00
2017-09-11T10:52:46.058Z,16.30
2017-09-11T10:55:16.359Z,15.90
2017-09-11T10:57:47.039Z,15.90
2017-09-11T11:00:17.695Z,15.80
2017-09-11T11:02:48.086Z,16.00
2017-09-11T11:05:18.483Z,16.90
2017-09-11T11:07:49.718Z,17.70
2017-09-11T11:10:20.855Z,17.70
2017-09-11T11:12:51.552Z,17.70
2017-09-11T11:15:21.993Z,17.40
2017-09-11T11:17:52.228Z,17.10
2017-09-11T11:20:23.995Z,16.90
2017-09-11T11:22:54.575Z,16.60
2017-09-11T11:25:24.802Z,16.60
2017-09-11T11:27:55.322Z,17.20
2017-09-11T11:30:25.679Z,17.70
2017-09-11T11:32:56.020Z,17.80
2017-09-11T11:35:27.182Z,18.00
2017-09-11T11:37:58.185Z,17.50
2017-09-11T11:40:28.735Z,17.40
2017-09-11T11:42:59.946Z,17.20
2017-09-11T11:45:30.375Z,17.20
2017-09-11T11:48:00.567Z,17.90
2017-09-11T11:50:31.159Z,18.00
2017-09-11T11:53:02.131Z,17.70
2017-09-11T11:55:32.370Z,17.70
2017-09-11T11:58:02.696Z,17.90
2017-09-11T12:00:33.374Z,18.00
2017-09-11T12:03:03.805Z,17.80
2017-09-11T12:05:34.166Z,17.50
2017-09-11T12:08:04.475Z,17.40
2017-09-11T12:10:34.810Z,17.30
2017-09-11T12:13:05.154Z,17.10
2017-09-11T12:15:35.516Z,17.10
2017-09-11T12:18:06.821Z,17.30
2017-09-11T12:20:37.071Z,17.30
2017-09-11T12:48:21.233Z,17.40
2017-09-11T12:50:51.923Z,17.10
2017-09-11T12:53:25.933Z,17.00
2017-09-11T12:56:01.637Z,16.70
2017-09-11T12:58:32.774Z,16.80
2017-09-11T13:01:03.210Z,16.80
2017-09-11T13:03:33.559Z,16.70
2017-09-11T13:06:03.760Z,16.50
2017-09-11T13:08:34.124Z,16.30
2017-09-11T13:11:04.651Z,16.30
2017-09-11T13:13:34.934Z,16.20
2017-09-11T13:16:05.218Z,16.40
2017-09-11T13:18:35.637Z,16.30
2017-09-11T13:21:06.043Z,16.40
2017-09-11T13:23:36.274Z,16.60
2017-09-11T13:26:07.757Z,16.70
2017-09-11T13:28:38.190Z,16.70
2017-09-11T13:31:08.587Z,16.70
2017-09-11T13:33:39.712Z,16.80
2017-09-11T13:36:09.990Z,16.80
2017-09-11T13:38:40.328Z,16.70
2017-09-11T13:41:11.471Z,16.70
2017-09-11T13:43:41.814Z,16.80
2017-09-11T13:46:12.239Z,16.80
2017-09-11T13:48:42.496Z,16.90
2017-09-11T13:51:13.634Z,17.00
2017-09-11T13:53:44.885Z,17.00
2017-09-11T13:56:16.315Z,17.10
2017-09-11T13:58:47.130Z,17.10
2017-09-11T14:01:17.372Z,17.20
2017-09-11T14:03:47.861Z,17.40
2017-09-11T14:06:18.274Z,17.50
2017-09-11T14:08:48.854Z,17.70
2017-09-11T14:11:19.197Z,17.80
2017-09-11T14:13:49.752Z,17.50
2017-09-11T14:16:20.227Z,17.30
2017-09-11T14:18:50.618Z,17.30
2017-09-11T14:21:21.478Z,17.20
2017-09-11T14:23:52.172Z,17.20
2017-09-11T14:26:23.022Z,17.20
2017-09-11T14:28:53.646Z,17.10
2017-09-11T14:31:23.917Z,17.20
2017-09-11T14:33:54.389Z,17.50
2017-09-11T14:36:24.900Z,17.70
2017-09-11T14:38:56.080Z,17.90
2017-09-11T14:41:26.821Z,17.90
2017-09-11T14:43:57.397Z,17.90
2017-09-11T14:46:27.951Z,17.90
2017-09-11T14:48:58.621Z,17.60
2017-09-11T14:51:30.169Z,17.60
2017-09-11T14:54:00.525Z,17.60
2017-09-11T14:56:31.168Z,17.80
2017-09-11T14:59:01.973Z,17.80
2017-09-11T15:01:32.560Z,17.50
2017-09-11T15:04:03.010Z,17.50
2017-09-11T15:06:33.394Z,17.60
2017-09-11T15:09:04.823Z,17.80
2017-09-11T15:11:36.158Z,17.90
2017-09-11T15:14:06.694Z,17.90
2017-09-11T15:16:37.823Z,17.70
2017-09-11T15:19:08.222Z,17.70
2017-09-11T15:21:38.990Z,17.60
2017-09-11T15:24:09.635Z,17.60
2017-09-11T15:26:39.957Z,17.70
2017-09-11T15:29:11.274Z,17.30
2017-09-11T15:31:41.716Z,17.30
2017-09-11T15:34:12.378Z,17.20
2017-09-11T15:36:42.695Z,17.20
2017-09-11T15:39:13.154Z,17.30
2017-09-11T15:41:44.640Z,17.40
2017-09-11T15:44:14.979Z,17.40
2017-09-11T15:46:46.090Z,17.30
2017-09-11T15:49:16.552Z,17.30
2017-09-11T15:51:46.914Z,17.30
2017-09-11T15:54:18.050Z,17.30
2017-09-11T15:56:48.707Z,17.30
2017-09-11T15:59:19.195Z,17.30
2017-09-11T16:01:49.439Z,17.20
2017-09-11T16:04:20.422Z,17.20
2017-09-11T16:06:51.201Z,17.20
2017-09-11T16:09:21.703Z,17.10
2017-09-11T16:11:53.829Z,17.20
2017-09-11T16:14:25.819Z,17.10
2017-09-11T16:16:56.254Z,17.00
2017-09-11T16:19:27.942Z,17.00
2017-09-11T16:21:59.470Z,16.90
2017-09-11T16:24:29.951Z,16.90
2017-09-11T16:27:00.726Z,16.90
2017-09-11T16:29:31.770Z,17.00
2017-09-11T16:32:02.857Z,16.90
2017-09-11T16:34:34.213Z,16.90
2017-09-11T16:37:05.005Z,16.90
2017-09-11T16:39:35.915Z,16.90
2017-09-11T16:42:07.834Z,16.80
2017-09-11T16:44:38.633Z,16.80
2017-09-11T16:47:09.847Z,16.80
2017-09-11T16:49:41.412Z,16.80
2017-09-11T16:52:11.694Z,16.70
2017-09-11T16:54:42.336Z,16.70
2017-09-11T16:57:14.355Z,16.70
2017-09-11T16:59:45.015Z,16.50
2017-09-11T17:02:16.310Z,16.40
2017-09-11T17:04:47.216Z,16.40
2017-09-11T17:07:17.707Z,16.30
2017-09-11T17:09:48.661Z,16.30
2017-09-11T17:12:21.329Z,16.30
2017-09-11T17:14:54.222Z,16.30
2017-09-11T17:17:28.578Z,16.30
2017-09-11T17:19:58.870Z,16.30
2017-09-11T17:22:33.190Z,16.30
2017-09-11T17:25:08.282Z,16.30
2017-09-11T17:27:40.975Z,16.30
2017-09-11T17:30:18.352Z,16.30
2017-09-11T17:32:51.974Z,16.30
2017-09-11T17:35:25.477Z,16.40
2017-09-11T17:37:57.316Z,16.40
2017-09-11T17:40:30.137Z,16.40
2017-09-11T17:43:03.575Z,16.40
2017-09-11T17:45:38.297Z,16.30
2017-09-11T17:48:13.720Z,16.30
2017-09-11T17:50:45.568Z,16.30
2017-09-11T17:53:17.813Z,16.30
2017-09-11T17:55:51.527Z,16.20
2017-09-11T17:58:24.347Z,16.20
2017-09-11T18:00:57.467Z,16.20
2017-09-11T18:03:31.005Z,16.20
2017-09-11T18:06:03.255Z,16.20
2017-09-11T18:08:35.326Z,16.20
2017-09-11T18:11:07.889Z,16.20
2017-09-11T18:13:40.573Z,16.10
2017-09-11T18:16:12.217Z,16.20
2017-09-11T18:18:46.664Z,16.10
2017-09-11T18:21:20.897Z,16.10
2017-09-11T18:23:55.301Z,16.10
2017-09-11T18:26:28.575Z,16.10
2017-09-11T18:29:01.463Z,16.10
2017-09-11T18:31:33.376Z,16.00
2017-09-11T18:34:15.358Z,15.90
2017-09-11T18:36:49.861Z,15.90
2017-09-11T18:39:21.763Z,15.90
2017-09-11T18:41:57.270Z,15.90
2017-09-11T18:44:31.968Z,15.80
2017-09-11T18:47:06.306Z,15.80
2017-09-11T18:49:42.395Z,15.70
2017-09-11T18:52:14.864Z,15.60
2017-09-11T18:54:48.276Z,15.50
2017-09-11T18:57:20.435Z,15.50
2017-09-11T18:59:54.174Z,15.50
2017-09-11T19:02:28.368Z,15.50
2017-09-11T19:05:02.979Z,15.40
2017-09-11T19:07:35.338Z,15.30
2017-09-11T19:10:09.603Z,15.30
2017-09-11T19:12:41.179Z,15.20
2017-09-11T19:15:15.935Z,15.20
2017-09-11T19:17:47.610Z,15.10
2017-09-11T19:20:21.115Z,15.10
2017-09-11T19:22:52.844Z,15.00
2017-09-11T19:25:25.509Z,15.00
2017-09-11T19:28:00.399Z,14.90
2017-09-11T19:30:32.497Z,14.90
2017-09-11T19:33:05.326Z,14.90
2017-09-11T19:35:38.525Z,14.90
2017-09-11T19:38:11.377Z,14.80
2017-09-11T19:40:44.765Z,14.80
2017-09-11T19:43:18.980Z,14.80
2017-09-11T19:45:50.876Z,14.80
2017-09-11T19:48:25.454Z,14.70
2017-09-11T19:50:58.679Z,14.80
2017-09-11T19:53:33.705Z,14.80
2017-09-11T19:56:07.708Z,14.80
2017-09-11T19:58:41.446Z,14.80
2017-09-11T20:01:18.645Z,14.70
2017-09-11T20:03:52.002Z,14.70
2017-09-11T20:06:25.967Z,14.70
2017-09-11T20:09:03.006Z,14.70
2017-09-11T20:11:36.005Z,14.70
2017-09-11T20:14:10.219Z,14.70
2017-09-11T20:16:45.559Z,14.70
2017-09-11T20:19:20.063Z,14.80
2017-09-11T20:21:52.016Z,14.70
2017-09-11T20:24:25.949Z,14.80
2017-09-11T20:26:58.748Z,14.70
2017-09-11T20:29:30.369Z,14.80
2017-09-11T20:32:02.673Z,14.80
2017-09-11T20:34:35.342Z,14.80
2017-09-11T20:37:13.363Z,14.80
2017-09-11T20:39:47.957Z,14.80
2017-09-11T20:42:22.519Z,14.80
2017-09-11T20:44:54.623Z,14.80
2017-09-11T20:47:26.062Z,14.80
2017-09-11T20:49:59.512Z,14.90
2017-09-11T20:52:33.847Z,14.90
2017-09-11T20:55:08.342Z,14.80
2017-09-11T20:57:42.775Z,14.80
2017-09-11T21:00:15.266Z,14.80
2017-09-11T21:02:47.802Z,14.90
2017-09-11T21:05:20.908Z,14.90
2017-09-11T21:07:55.653Z,14.90
2017-09-11T21:10:28.831Z,14.90
2017-09-11T21:13:01.725Z,14.90
2017-09-11T21:15:37.213Z,14.90
2017-09-11T21:18:17.063Z,14.90
2017-09-11T21:20:53.380Z,14.90
2017-09-11T21:23:30.738Z,14.90
2017-09-11T21:26:04.725Z,14.90
2017-09-11T21:28:37.787Z,14.90
2017-09-11T21:31:10.673Z,14.90
2017-09-11T21:33:44.656Z,14.90
2017-09-11T21:36:18.587Z,14.90
2017-09-11T21:38:52.985Z,14.90
2017-09-11T21:41:26.631Z,14.80
2017-09-11T21:43:59.591Z,14.90
2017-09-11T21:46:36.307Z,14.90
2017-09-11T21:49:11.949Z,14.90
2017-09-11T21:51:43.569Z,14.80
2017-09-11T21:54:18.143Z,14.90
2017-09-11T21:56:50.870Z,14.90
2017-09-11T21:59:25.006Z,14.80
2017-09-11T22:02:01.078Z,14.80
2017-09-11T22:04:35.859Z,14.80
2017-09-11T22:07:09.621Z,14.80
2017-09-11T22:09:43.957Z,14.80
2017-09-11T22:12:18.986Z,14.70
2017-09-11T22:14:55.490Z,14.70
2017-09-11T22:17:30.278Z,14.70
2017-09-11T22:20:06.424Z,14.70
2017-09-11T22:22:39.756Z,14.70
2017-09-11T22:25:12.490Z,14.70
2017-09-11T22:27:44.573Z,14.70
2017-09-11T22:30:17.645Z,14.60
2017-09-11T22:32:53.279Z,14.60
2017-09-11T22:35:28.830Z,14.60
2017-09-11T22:38:02.221Z,14.60
2017-09-11T22:40:34.304Z,14.60
2017-09-11T22:43:05.839Z,14.50
2017-09-11T22:45:42.398Z,14.50
2017-09-11T22:48:17.013Z,14.60
2017-09-11T22:50:49.063Z,14.60
2017-09-11T22:53:22.270Z,14.60
2017-09-11T22:55:55.253Z,14.60
2017-09-11T22:58:29.775Z,14.60
2017-09-11T23:01:03.109Z,14.60
2017-09-11T23:03:36.565Z,14.60
2017-09-11T23:06:08.404Z,14.60
2017-09-11T23:08:40.631Z,14.60
2017-09-11T23:11:15.050Z,14.60
2017-09-11T23:13:47.947Z,14.60
2017-09-11T23:16:20.192Z,14.50
2017-09-11T23:18:54.198Z,14.50
2017-09-11T23:21:26.191Z,14.40
2017-09-11T23:23:58.530Z,14.40
2017-09-11T23:26:30.536Z,14.40
2017-09-11T23:29:02.548Z,14.30
2017-09-11T23:31:35.645Z,14.30
2017-09-11T23:34:08.209Z,14.30
2017-09-11T23:36:42.516Z,14.30
2017-09-11T23:39:17.569Z,14.40
2017-09-11T23:41:50.303Z,14.40
2017-09-11T23:44:23.444Z,14.40
2017-09-11T23:46:57.504Z,14.30
2017-09-11T23:49:31.955Z,14.30
2017-09-11T23:52:06.086Z,14.30
2017-09-11T23:54:39.604Z,14.30
2017-09-11T23:57:12.306Z,14.30
2017-09-11T23:59:44.435Z,14.30
